Time;durP1;ratioP1;P1;durP2;ratioP2;P2;SDS_P1;SDS_P2;PMS_P1;PMS_P2;Temp;Humidity;BMP_temperature;BMP_pressure;BME280_temperature;BME280_humidity;BME280_pressure;Samples;Min_cycle;Max_cycle;Signal;HPM_P1;HPM_P2
2021/07/14 00:00:11;;;;;;;19.45;10.85;;;;;;;20.94;82.19;101030.50;5072491;28;20032;-84
2021/07/14 00:02:36;;;;;;;16.42;10.95;;;;;;;20.91;82.17;101036.72;5072608;28;20043;-84
2021/07/14 00:05:09;;;;;;;16.30;11.18;;;;;;;20.89;82.41;101030.69;5072342;28;20462;-85
2021/07/14 00:07:35;;;;;;;16.98;11.18;;;;;;;20.86;82.32;101037.72;5064310;28;20028;-83
2021/07/14 00:10:00;;;;;;;15.00;11.57;;;;;;;20.83;82.80;101036.44;5092992;28;20049;-84
2021/07/14 00:12:29;;;;;;;14.38;11.40;;;;;;;20.80;82.64;101031.56;5092393;28;20028;-83
2021/07/14 00:22:34;;;;;;;16.58;12.48;;;;;;;20.75;83.09;101031.78;5072214;28;20142;-84
2021/07/14 00:24:59;;;;;;;15.18;12.27;;;;;;;20.72;83.60;101024.13;5073160;28;20016;-84
2021/07/14 00:27:25;;;;;;;18.27;12.65;;;;;;;20.71;83.80;101033.59;5079766;28;20031;-84
2021/07/14 00:29:58;;;;;;;17.00;12.70;;;;;;;20.70;83.50;101037.50;5093369;28;20024;-84
2021/07/14 00:32:24;;;;;;;17.00;13.23;;;;;;;20.70;84.06;101031.97;5093901;28;20020;-84
2021/07/14 00:34:50;;;;;;;17.30;14.07;;;;;;;20.69;83.90;101030.34;5092020;28;20022;-84
2021/07/14 00:37:15;;;;;;;18.05;14.65;;;;;;;20.68;84.03;101027.91;5087025;28;20028;-85
2021/07/14 00:39:42;;;;;;;21.63;15.48;;;;;;;20.66;84.14;101028.25;5073040;28;20184;-84
2021/07/14 00:42:08;;;;;;;19.55;14.65;;;;;;;20.65;84.29;101026.63;5073245;28;20100;-83
2021/07/14 00:44:34;;;;;;;18.23;15.30;;;;;;;20.65;84.33;101032.16;5072848;28;20024;-84
2021/07/14 00:47:02;;;;;;;19.88;16.65;;;;;;;20.65;84.81;101018.31;5074889;28;20031;-84
2021/07/14 00:49:29;;;;;;;20.90;16.63;;;;;;;20.64;84.84;101019.47;5091862;28;20094;-85
2021/07/14 00:51:54;;;;;;;20.23;16.58;;;;;;;20.65;84.70;101021.06;5091802;28;20024;-85
2021/07/14 00:54:19;;;;;;;18.77;16.77;;;;;;;20.65;84.89;101029.38;5093566;28;20338;-85
2021/07/14 00:56:45;;;;;;;20.92;17.00;;;;;;;20.67;85.07;101020.75;5092434;28;20032;-85
2021/07/14 00:59:11;;;;;;;21.45;17.90;;;;;;;20.67;85.32;101032.63;5072660;28;20036;-86
2021/07/14 01:01:36;;;;;;;23.60;18.55;;;;;;;20.67;85.47;101021.56;5072706;28;20029;-86
2021/07/14 01:04:09;;;;;;;20.35;18.08;;;;;;;20.67;85.64;101021.56;5072698;28;20024;-84
2021/07/14 01:06:52;;;;;;;21.83;19.63;;;;;;;20.68;85.61;101016.81;5071573;28;20025;-85
2021/07/14 01:09:18;;;;;;;;;;;;;;;20.68;85.30;101017.66;5061637;28;20032;-86
2021/07/14 01:11:43;;;;;;;22.15;18.13;;;;;;;20.66;85.17;101019.94;5091235;28;20265;-85
2021/07/14 01:14:23;;;;;;;21.10;18.20;;;;;;;20.65;85.62;101015.53;5074917;28;20073;-85
2021/07/14 01:17:08;;;;;;;23.88;20.10;;;;;;;20.65;85.84;101011.97;5075129;28;20028;-85
2021/07/14 01:19:48;;;;;;;22.58;20.27;;;;;;;20.66;85.93;101010.84;5071496;28;20032;-85
2021/07/14 01:22:30;;;;;;;24.25;21.23;;;;;;;20.64;85.93;101005.63;5072707;28;20027;-85
2021/07/14 01:25:07;;;;;;;22.95;20.52;;;;;;;20.66;86.19;101003.31;5056829;28;20082;-85
2021/07/14 01:27:38;;;;;;;25.02;20.80;;;;;;;20.66;86.41;100996.97;5093129;28;20039;-84
2021/07/14 01:30:09;;;;;;;22.88;20.40;;;;;;;20.68;86.51;101003.81;5096796;28;20122;-85
2021/07/14 01:32:35;;;;;;;26.50;22.23;;;;;;;20.69;86.43;100999.06;5095514;28;20466;-85
2021/07/14 01:35:06;;;;;;;25.13;22.15;;;;;;;20.68;86.75;101001.03;5095469;28;20032;-85
2021/07/14 01:37:31;;;;;;;25.83;22.60;;;;;;;20.68;86.88;101001.03;5059083;28;20029;-84
2021/07/14 01:39:57;;;;;;;25.23;21.95;;;;;;;20.69;86.80;101001.84;5075028;28;20517;-84
2021/07/14 01:42:25;;;;;;;25.23;22.48;;;;;;;20.70;87.08;101007.03;5058531;28;20043;-85
2021/07/14 01:44:52;;;;;;;28.73;22.27;;;;;;;20.72;87.07;101001.97;5075073;28;20377;-85
2021/07/14 01:47:18;;;;;;;29.08;24.35;;;;;;;20.75;87.07;101009.59;5075386;28;20427;-84
2021/07/14 01:49:43;;;;;;;27.30;24.45;;;;;;;20.77;87.43;101012.03;5095412;28;20027;-85
2021/07/14 01:52:16;;;;;;;25.98;23.23;;;;;;;20.77;87.73;101001.78;5095413;28;20028;-85
2021/07/14 01:54:41;;;;;;;25.77;23.08;;;;;;;20.80;87.52;101006.63;5078785;28;20050;-84
2021/07/14 01:57:07;;;;;;;29.05;24.58;;;;;;;20.81;87.89;101011.00;5062727;28;20044;-85
2021/07/14 01:59:32;;;;;;;27.67;24.10;;;;;;;20.81;87.44;101005.47;5058061;28;20029;-85
2021/07/14 02:02:00;;;;;;;28.45;25.30;;;;;;;20.81;87.69;101005.47;5076028;28;20399;-85
2021/07/14 02:04:32;;;;;;;27.40;23.95;;;;;;;20.83;87.86;101008.72;5041767;28;20484;-84
2021/07/14 02:07:26;;;;;;;30.17;23.98;;;;;;;20.83;88.06;101002.38;5089380;28;20555;-85
2021/07/14 02:09:53;;;;;;;28.23;24.52;;;;;;;20.82;87.77;101004.34;5074020;28;20064;-85
2021/07/14 02:12:20;;;;;;;29.00;24.33;;;;;;;20.81;87.79;100993.59;5095917;28;20073;-85
2021/07/14 02:15:00;;;;;;;27.70;24.48;;;;;;;20.80;88.26;101000.28;5076173;28;20020;-85
2021/07/14 02:17:27;;;;;;;24.98;22.42;;;;;;;20.80;87.95;101005.81;5074679;28;20025;-85
2021/07/14 02:20:20;;;;;;;27.58;23.90;;;;;;;20.80;88.10;101000.28;5075753;28;20380;-86
2021/07/14 02:22:46;;;;;;;25.80;22.98;;;;;;;20.81;88.02;100999.13;5072440;28;20090;-86
2021/07/14 02:25:12;;;;;;;26.05;23.35;;;;;;;20.80;87.99;100991.97;5074317;28;20048;-85
2021/07/14 02:27:38;;;;;;;28.85;25.13;;;;;;;20.80;88.14;100997.50;5074701;28;20090;-85
2021/07/14 02:30:14;;;;;;;26.48;23.83;;;;;;;20.79;88.32;100991.16;5075694;28;20039;-84
2021/07/14 02:32:39;;;;;;;29.10;26.02;;;;;;;20.80;88.32;101006.63;5075902;28;20052;-85
2021/07/14 02:35:05;;;;;;;25.70;22.98;;;;;;;20.78;88.36;100997.84;5094333;28;20027;-85
2021/07/14 02:37:33;;;;;;;29.17;25.13;;;;;;;20.78;88.38;100986.75;5076035;28;20034;-85
2021/07/14 02:39:59;;;;;;;27.27;24.48;;;;;;;20.78;88.33;100991.50;5077126;28;20083;-84
2021/07/14 02:42:29;;;;;;;27.38;24.10;;;;;;;20.79;88.32;100998.69;5094200;28;20058;-86
2021/07/14 02:44:54;;;;;;;29.92;26.52;;;;;;;20.77;88.37;100987.91;5057963;28;20121;-86
2021/07/14 02:47:20;;;;;;;28.02;25.02;;;;;;;20.78;88.48;100981.22;5073926;28;20486;-85
2021/07/14 02:49:45;;;;;;;29.02;26.02;;;;;;;20.77;88.49;100979.59;5057189;28;20466;-86
2021/07/14 02:52:11;;;;;;;27.25;24.52;;;;;;;20.78;88.35;100989.53;5074041;28;20029;-85
2021/07/14 02:54:38;;;;;;;26.45;23.63;;;;;;;20.77;88.67;100985.16;5088990;28;20031;-85
2021/07/14 02:57:04;;;;;;;25.88;23.30;;;;;;;20.79;88.56;100979.28;5086991;28;20474;-85
2021/07/14 02:59:37;;;;;;;27.75;24.85;;;;;;;20.79;88.47;100974.53;5056934;28;20078;-85
2021/07/14 03:02:03;;;;;;;28.02;25.23;;;;;;;20.80;88.58;100976.16;5057837;28;20039;-84
2021/07/14 03:04:33;;;;;;;28.98;25.85;;;;;;;20.81;88.74;100975.00;5074631;28;20025;-85
2021/07/14 03:07:02;;;;;;;29.98;26.13;;;;;;;20.82;88.59;100971.09;5079484;28;20050;-86
2021/07/14 03:09:32;;;;;;;26.20;22.70;;;;;;;20.83;88.84;100971.91;5077564;28;20024;-85
2021/07/14 03:11:58;;;;;;;30.33;26.33;;;;;;;20.83;88.42;100969.13;5093559;28;20020;-85
2021/07/14 03:14:24;;;;;;;27.85;24.95;;;;;;;20.84;88.37;100967.97;5091977;28;20040;-85
2021/07/14 03:16:49;;;;;;;29.50;26.33;;;;;;;20.86;88.55;100965.66;5073231;28;20036;-86
2021/07/14 03:19:15;;;;;;;30.58;27.40;;;;;;;20.89;88.64;100978.03;5056674;28;20086;-86
2021/07/14 03:21:41;;;;;;;29.60;26.67;;;;;;;20.90;88.66;100979.66;5056496;28;20039;-86
2021/07/14 03:24:08;;;;;;;28.20;25.40;;;;;;;20.93;88.81;100970.69;5040548;28;20024;-86
2021/07/14 03:26:35;;;;;;;29.17;25.40;;;;;;;20.94;88.61;100977.84;5073084;28;20500;-86
2021/07/14 03:29:00;;;;;;;33.40;27.05;;;;;;;20.95;88.72;100977.50;5073388;28;20029;-86
2021/07/14 03:31:26;;;;;;;31.05;27.73;;;;;;;20.99;88.72;100988.72;5072991;28;20023;-85
2021/07/14 03:33:51;;;;;;;27.17;24.38;;;;;;;21.01;88.71;100983.66;5056315;28;20028;-87
2021/07/14 03:36:17;;;;;;;26.75;24.05;;;;;;;21.02;88.49;100976.94;5090595;28;20382;-85
2021/07/14 03:38:42;;;;;;;28.33;25.40;;;;;;;21.02;88.66;100972.22;5076554;28;20036;-86
2021/07/14 03:41:08;;;;;;;28.88;25.88;;;;;;;21.04;88.49;100967.16;5092975;28;20040;-85
2021/07/14 03:43:33;;;;;;;29.58;26.48;;;;;;;21.06;88.60;100966.78;5076130;28;20373;-85
2021/07/14 03:46:00;;;;;;;28.90;25.88;;;;;;;21.08;88.49;100961.72;5077592;28;20044;-85
2021/07/14 03:48:26;;;;;;;28.02;25.13;;;;;;;21.09;88.49;100970.84;5056086;28;20028;-85
2021/07/14 03:50:52;;;;;;;28.50;25.50;;;;;;;21.09;88.33;100966.13;5072537;28;20367;-86
2021/07/14 03:53:19;;;;;;;30.33;27.13;;;;;;;21.10;88.31;100967.75;5055964;28;20163;-86
2021/07/14 03:55:45;;;;;;;27.63;24.75;;;;;;;21.11;88.12;100974.91;5068516;28;20043;-86
2021/07/14 03:58:11;;;;;;;29.17;26.13;;;;;;;21.11;87.98;100974.91;5093919;28;20032;-86
2021/07/14 04:00:36;;;;;;;29.23;26.23;;;;;;;21.13;88.35;100972.59;5093888;28;20031;-86
2021/07/14 04:03:02;;;;;;;28.45;25.65;;;;;;;21.15;88.41;100973.06;5092584;28;20373;-86
2021/07/14 04:05:27;;;;;;;28.40;25.27;;;;;;;21.18;88.04;100974.34;5066407;28;20032;-85
2021/07/14 04:07:53;;;;;;;29.13;26.17;;;;;;;21.21;88.21;100982.00;5055705;28;20082;-86
2021/07/14 04:10:19;;;;;;;27.83;25.00;;;;;;;21.22;88.19;100975.28;5072239;28;20467;-86
2021/07/14 04:12:44;;;;;;;25.33;22.83;;;;;;;21.21;88.10;100980.03;5055533;28;20029;-86
2021/07/14 04:15:10;;;;;;;29.73;25.65;;;;;;;21.22;88.01;100978.88;5062592;28;20027;-86
2021/07/14 04:17:35;;;;;;;31.92;26.00;;;;;;;21.21;87.84;100968.94;5092285;28;20435;-86
2021/07/14 04:20:01;;;;;;;27.27;24.52;;;;;;;21.19;87.73;100979.53;5092475;28;20203;-85
2021/07/14 04:22:27;;;;;;;29.50;25.88;;;;;;;21.18;87.72;100975.16;5093754;28;20027;-85
2021/07/14 04:24:52;;;;;;;30.02;26.80;;;;;;;21.17;87.71;100970.78;5089779;28;20504;-85
2021/07/14 04:27:17;;;;;;;29.85;26.67;;;;;;;21.18;87.68;100966.03;5072249;28;20055;-86
2021/07/14 04:29:43;;;;;;;29.48;26.42;;;;;;;21.19;87.82;100968.47;5073116;28;20020;-85
2021/07/14 04:32:10;;;;;;;29.30;26.23;;;;;;;21.21;88.06;100968.13;5073076;28;20028;-86
2021/07/14 04:34:35;;;;;;;24.77;22.10;;;;;;;21.23;87.64;100963.88;5073015;28;20024;-85
2021/07/14 04:37:01;;;;;;;28.88;25.88;;;;;;;21.25;87.52;100969.88;5093262;28;20027;-84
2021/07/14 04:39:26;;;;;;;30.30;27.17;;;;;;;21.27;87.68;100970.34;5093387;28;20381;-86
2021/07/14 04:41:51;;;;;;;23.58;21.25;;;;;;;21.31;87.33;100967.69;5091913;28;20038;-85
2021/07/14 04:47:01;;;;;;;25.65;23.13;;;;;;;21.43;87.20;100989.13;5071949;28;20079;-85
2021/07/14 04:49:26;;;;;;;30.65;25.40;;;;;;;21.47;87.13;100992.84;5071678;28;20036;-85
2021/07/14 04:51:52;;;;;;;28.05;25.08;;;;;;;21.53;87.18;100991.47;5072735;28;20021;-85
2021/07/14 04:54:17;;;;;;;26.35;23.58;;;;;;;21.59;87.03;100981.78;5084659;28;20020;-86
2021/07/14 04:56:44;;;;;;;29.35;26.48;;;;;;;21.64;86.80;100986.31;5093252;28;20098;-85
2021/07/14 04:59:09;;;;;;;29.17;26.17;;;;;;;21.69;86.61;100984.13;5092502;28;20068;-86
2021/07/14 05:01:35;;;;;;;24.48;21.92;;;;;;;21.77;86.48;100984.34;5092828;28;20143;-85
2021/07/14 05:04:00;;;;;;;29.73;26.77;;;;;;;21.82;86.31;100986.91;5083297;28;20020;-86
2021/07/14 05:06:26;;;;;;;25.27;22.65;;;;;;;21.87;86.28;100984.69;5072669;28;20040;-85
2021/07/14 05:08:52;;;;;;;28.35;25.42;;;;;;;21.87;85.79;100975.56;5091535;28;20027;-85
2021/07/14 05:11:18;;;;;;;29.13;26.23;;;;;;;21.90;86.08;100972.91;5092970;28;20431;-85
2021/07/14 05:13:43;;;;;;;27.75;24.98;;;;;;;21.97;86.09;100975.13;5087725;28;20028;-85
2021/07/14 05:16:09;;;;;;;30.67;26.52;;;;;;;22.01;86.12;100978.00;5083292;28;20027;-86
2021/07/14 05:18:35;;;;;;;27.20;24.58;;;;;;;22.04;85.93;100975.34;5091247;28;20024;-85
2021/07/14 05:21:00;;;;;;;29.00;25.98;;;;;;;22.10;85.73;100973.97;5087732;28;20050;-86
2021/07/14 05:23:26;;;;;;;30.13;27.15;;;;;;;22.17;85.97;100988.06;5071609;28;20363;-85
2021/07/14 05:25:52;;;;;;;29.38;26.55;;;;;;;22.25;85.99;100980.00;5073082;28;20041;-85
2021/07/14 05:28:17;;;;;;;31.27;28.33;;;;;;;22.29;85.97;100978.13;5072498;28;20029;-85
2021/07/14 05:30:42;;;;;;;29.88;26.83;;;;;;;22.32;85.78;100980.22;5071696;28;20439;-85
2021/07/14 05:33:08;;;;;;;30.38;27.38;;;;;;;22.35;85.86;100976.75;5085293;28;20021;-85
2021/07/14 05:35:33;;;;;;;30.77;27.70;;;;;;;22.39;85.63;100975.69;5037909;28;20436;-86
2021/07/14 05:37:59;;;;;;;30.58;27.83;;;;;;;22.41;85.75;100969.78;5054811;28;20027;-86
2021/07/14 05:40:24;;;;;;;24.60;22.35;;;;;;;22.47;85.47;100976.72;5072421;28;20048;-86
2021/07/14 05:42:50;;;;;;;28.90;26.15;;;;;;;22.50;85.18;100967.69;5072668;28;20023;-85
2021/07/14 05:45:15;;;;;;;27.73;25.08;;;;;;;22.53;84.86;100983.66;5072283;28;20033;-86
2021/07/14 05:47:41;;;;;;;30.30;27.33;;;;;;;22.59;84.99;100976.72;5078136;28;20020;-86
2021/07/14 05:50:07;;;;;;;30.33;27.55;;;;;;;22.65;85.13;100990.38;5085109;28;20367;-86
2021/07/14 05:52:34;;;;;;;29.95;27.33;;;;;;;22.67;85.24;100980.50;5072397;28;20028;-85
2021/07/14 05:54:59;;;;;;;28.42;25.63;;;;;;;22.71;84.93;100988.94;5086970;28;20033;-86
2021/07/14 05:57:24;;;;;;;30.27;27.17;;;;;;;22.76;84.95;100985.94;5091178;28;20024;-86
2021/07/14 05:59:50;;;;;;;29.42;26.38;;;;;;;22.81;84.82;100992.06;5088527;28;20070;-85
2021/07/14 06:02:16;;;;;;;30.40;27.55;;;;;;;22.87;84.86;100992.59;5074073;28;20386;-85
2021/07/14 06:04:43;;;;;;;31.60;28.48;;;;;;;22.91;84.97;100990.72;5090886;28;20042;-85
2021/07/14 06:07:08;;;;;;;30.13;27.10;;;;;;;22.94;84.90;100987.22;5092379;28;20492;-85
2021/07/14 06:09:34;;;;;;;30.20;27.23;;;;;;;22.99;84.82;100984.25;5091837;28;20028;-85
2021/07/14 06:11:59;;;;;;;30.80;28.00;;;;;;;23.03;84.52;100990.72;5094686;28;20024;-85
2021/07/14 06:14:25;;;;;;;31.00;27.80;;;;;;;23.09;84.50;100982.94;5094002;28;20053;-86
2021/07/14 06:16:51;;;;;;;28.27;25.50;;;;;;;23.12;84.31;100987.78;5089881;28;20398;-86
2021/07/14 06:19:17;;;;;;;30.58;26.88;;;;;;;23.17;83.98;100993.09;5059572;28;20028;-84
2021/07/14 06:21:42;;;;;;;24.77;22.38;;;;;;;23.22;83.49;100992.06;5084735;28;20032;-85
2021/07/14 06:24:07;;;;;;;27.23;24.60;;;;;;;23.27;83.29;100983.41;5087754;28;20017;-84
2021/07/14 06:26:33;;;;;;;25.85;23.33;;;;;;;23.34;83.13;100982.81;5080723;28;20024;-82
2021/07/14 06:28:58;;;;;;;29.33;26.63;;;;;;;23.37;82.97;100988.47;5094066;28;20039;-82
2021/07/14 06:31:24;;;;;;;27.63;25.02;;;;;;;23.44;82.72;100993.44;5086063;28;20031;-83
2021/07/14 06:33:49;;;;;;;23.92;21.77;;;;;;;23.47;82.59;100999.09;5088504;28;20442;-82
2021/07/14 06:36:14;;;;;;;25.65;23.13;;;;;;;23.52;81.67;101005.53;5087194;28;20032;-83
2021/07/14 06:38:40;;;;;;;25.73;23.40;;;;;;;23.58;81.41;101009.72;5082892;28;20473;-82
2021/07/14 06:41:05;;;;;;;26.30;23.85;;;;;;;23.64;81.44;101002.69;5083696;28;20401;-83
2021/07/14 06:43:45;;;;;;;25.08;22.65;;;;;;;23.72;81.12;101010.09;5079096;28;20027;-83
2021/07/14 06:46:14;;;;;;;27.50;25.00;;;;;;;23.78;80.77;101003.09;5079987;28;20032;-81
2021/07/14 06:48:39;;;;;;;29.42;26.33;;;;;;;23.87;81.04;101009.31;5077242;28;20032;-83
2021/07/14 06:51:05;;;;;;;26.98;24.55;;;;;;;23.89;80.72;100993.03;5093604;28;20119;-82
2021/07/14 06:53:31;;;;;;;27.90;25.52;;;;;;;23.94;80.67;100994.75;5061637;28;20039;-86
2021/07/14 06:55:58;;;;;;;26.85;24.40;;;;;;;24.03;80.17;100997.34;5092176;28;20111;-85
2021/07/14 06:58:27;;;;;;;28.65;26.00;;;;;;;24.10;80.21;101003.09;5075045;28;20032;-85
2021/07/14 07:00:53;;;;;;;26.35;23.85;;;;;;;24.19;80.12;101005.69;5086900;28;20469;-83
2021/07/14 07:03:18;;;;;;;27.20;24.42;;;;;;;24.26;79.48;101000.31;5088673;28;20028;-78
2021/07/14 07:05:44;;;;;;;26.48;23.67;;;;;;;24.35;79.45;100992.53;5085027;28;20028;-78
2021/07/14 07:08:10;;;;;;;24.25;21.95;;;;;;;24.49;78.88;100997.66;5092860;28;20023;-79
2021/07/14 07:10:35;;;;;;;24.75;22.48;;;;;;;24.58;78.41;100996.31;5075944;28;20029;-79
2021/07/14 07:13:00;;;;;;;28.02;25.15;;;;;;;24.68;78.23;100994.91;5075099;28;20036;-79
2021/07/14 07:15:26;;;;;;;24.83;22.42;;;;;;;24.77;77.57;100987.16;5082517;28;20380;-79
2021/07/14 07:17:51;;;;;;;23.55;21.50;;;;;;;24.84;77.33;100991.25;5084989;28;20032;-79
2021/07/14 07:20:17;;;;;;;25.58;23.48;;;;;;;24.91;77.05;101005.34;5082594;28;20024;-79
2021/07/14 07:22:43;;;;;;;27.65;25.15;;;;;;;24.97;76.89;101001.09;5083202;28;20473;-78
2021/07/14 07:25:09;;;;;;;24.48;22.27;;;;;;;25.03;76.30;101010.78;5085164;28;20528;-78
2021/07/14 07:27:37;;;;;;;26.73;24.15;;;;;;;25.11;75.93;101006.16;5084228;28;20020;-79
2021/07/14 07:30:06;;;;;;;26.23;23.85;;;;;;;25.16;75.82;101012.28;5064211;28;20484;-78
2021/07/14 07:32:32;;;;;;;24.00;21.85;;;;;;;25.24;75.69;101011.25;5084915;28;20024;-78
2021/07/14 07:34:57;;;;;;;27.48;24.88;;;;;;;25.32;75.30;101022.53;5081076;28;20488;-78
2021/07/14 07:37:22;;;;;;;25.73;23.35;;;;;;;25.39;74.76;101017.09;5082754;28;20028;-78
2021/07/14 07:39:48;;;;;;;25.90;23.45;;;;;;;25.47;74.90;101019.66;5082908;28;20056;-78
2021/07/14 07:42:14;;;;;;;26.92;24.05;;;;;;;25.54;73.87;101013.41;5081123;28;20032;-78
2021/07/14 07:44:39;;;;;;;26.30;23.88;;;;;;;25.57;73.47;101017.44;5083916;28;20024;-78
2021/07/14 07:47:05;;;;;;;27.50;24.98;;;;;;;25.60;73.54;101011.94;5085626;28;20554;-78
2021/07/14 07:49:30;;;;;;;27.13;24.52;;;;;;;25.58;73.83;101005.91;5083607;28;20080;-78
2021/07/14 07:51:56;;;;;;;28.13;25.42;;;;;;;25.59;73.69;100999.16;5083428;28;20371;-78
2021/07/14 07:54:21;;;;;;;25.23;23.00;;;;;;;25.69;73.00;100998.50;5084215;28;20050;-78
2021/07/14 07:56:46;;;;;;;26.65;24.35;;;;;;;25.79;72.57;100997.09;5082213;28;20024;-78
2021/07/14 07:59:12;;;;;;;23.88;21.80;;;;;;;25.86;72.71;101004.81;5084854;28;20047;-78
2021/07/14 08:01:37;;;;;;;25.40;23.10;;;;;;;25.94;71.77;101012.13;5082971;28;20345;-78
2021/07/14 08:04:03;;;;;;;25.23;23.02;;;;;;;25.99;71.70;101014.63;5067117;28;20386;-78
2021/07/14 08:06:29;;;;;;;27.25;24.80;;;;;;;25.97;71.99;101007.78;5085011;28;20094;-79
2021/07/14 08:08:54;;;;;;;26.58;23.90;;;;;;;26.00;71.54;101018.22;5088123;28;20047;-80
2021/07/14 08:11:20;;;;;;;25.80;23.30;;;;;;;26.11;71.37;101013.63;5084982;28;20520;-79
2021/07/14 08:13:45;;;;;;;26.55;24.15;;;;;;;26.22;71.22;101024.94;5085845;28;20036;-78
2021/07/14 08:16:10;;;;;;;28.70;25.90;;;;;;;26.10;70.90;101023.19;5092983;28;20026;-79
2021/07/14 08:18:36;;;;;;;30.50;27.67;;;;;;;25.91;71.79;101022.06;5071832;28;20036;-80
2021/07/14 08:21:02;;;;;;;30.50;27.80;;;;;;;25.77;71.79;101026.56;5079775;28;20035;-80
2021/07/14 08:23:27;;;;;;;30.63;27.77;;;;;;;25.72;72.21;101018.50;5055461;28;20099;-78
2021/07/14 08:25:53;;;;;;;31.20;28.23;;;;;;;25.80;71.88;101020.25;5072068;28;20131;-79
2021/07/14 08:28:19;;;;;;;29.52;26.83;;;;;;;25.78;71.98;101014.22;5090575;28;20032;-79
2021/07/14 08:30:44;;;;;;;28.90;26.23;;;;;;;25.79;72.28;101013.06;5087351;28;20035;-78
2021/07/14 08:33:10;;;;;;;29.38;26.80;;;;;;;25.83;72.21;101011.13;5072949;28;20036;-79
2021/07/14 08:35:35;;;;;;;32.58;29.42;;;;;;;25.80;71.99;101020.25;5077213;28;20487;-78
2021/07/14 08:38:01;;;;;;;31.90;28.90;;;;;;;25.63;72.19;101022.34;5092043;28;20031;-79
2021/07/14 08:40:26;;;;;;;32.40;29.20;;;;;;;25.56;72.24;101015.81;5085721;28;20044;-78
2021/07/14 08:42:56;;;;;;;29.98;27.17;;;;;;;25.46;72.21;101009.69;5073128;28;20048;-78
2021/07/14 08:45:21;;;;;;;31.70;28.73;;;;;;;25.40;72.28;101016.75;5055796;28;20020;-78
2021/07/14 08:47:46;;;;;;;31.50;28.45;;;;;;;25.37;72.48;101019.44;5071733;28;20047;-80
2021/07/14 08:50:13;;;;;;;30.92;28.10;;;;;;;25.34;72.36;101015.41;5076198;28;20023;-82
2021/07/14 08:52:42;;;;;;;31.42;28.45;;;;;;;25.36;72.58;101012.25;5071320;28;20086;-82
2021/07/14 08:55:09;;;;;;;33.80;30.42;;;;;;;25.48;72.44;101014.88;5057235;28;20017;-80
2021/07/14 08:57:34;;;;;;;33.05;29.77;;;;;;;25.63;72.75;101016.75;5077495;28;20429;-81
2021/07/14 08:59:59;;;;;;;31.45;28.75;;;;;;;25.76;72.07;101022.19;5069490;28;20028;-81
2021/07/14 09:02:25;;;;;;;31.58;28.67;;;;;;;25.82;71.93;101015.09;5081947;28;20023;-81
2021/07/14 09:04:50;;;;;;;31.15;28.27;;;;;;;25.85;71.55;101017.19;5052817;28;20084;-80
2021/07/14 09:07:16;;;;;;;29.40;26.83;;;;;;;25.87;71.85;101003.66;5073300;28;20466;-80
2021/07/14 09:09:42;;;;;;;32.72;29.55;;;;;;;26.01;71.82;101009.47;5083790;28;20032;-80
2021/07/14 09:12:09;;;;;;;32.97;29.98;;;;;;;26.15;71.52;101003.31;5090891;28;20047;-80
2021/07/14 09:14:36;;;;;;;37.80;34.20;;;;;;;26.20;71.35;100996.59;5091378;28;20032;-81
2021/07/14 09:17:25;;;;;;;37.90;34.05;;;;;;;26.14;70.80;101001.69;5090571;28;20388;-81
2021/07/14 09:20:01;;;;;;;37.75;33.88;;;;;;;25.93;71.33;101007.75;5091891;28;20032;-80
2021/07/14 09:22:27;;;;;;;38.83;34.83;;;;;;;25.80;71.82;101003.50;5073726;28;20024;-80
2021/07/14 09:24:56;;;;;;;36.67;33.22;;;;;;;25.73;72.87;100997.75;5079869;28;20021;-80
2021/07/14 09:27:27;;;;;;;37.88;34.33;;;;;;;25.74;72.90;100994.63;5071652;28;20111;-80
2021/07/14 09:30:11;;;;;;;35.90;32.47;;;;;;;25.67;72.54;100995.31;5084373;28;20031;-81
2021/07/14 09:32:53;;;;;;;37.97;34.38;;;;;;;25.68;72.62;100996.91;5092317;28;20062;-80
2021/07/14 09:35:25;;;;;;;39.83;36.13;;;;;;;25.68;72.24;100996.91;5079112;28;20153;-80
2021/07/14 09:37:50;;;;;;;;;;;;;;;25.72;72.84;100999.75;5078685;28;20036;-79
2021/07/14 09:40:16;;;;;;;34.78;31.38;;;;;;;25.76;72.84;101003.44;5082449;28;20007;-80
2021/07/14 09:42:57;;;;;;;35.63;32.17;;;;;;;25.76;72.57;101002.63;5079199;28;20047;-80
2021/07/14 09:45:54;;;;;;;34.90;31.35;;;;;;;25.78;72.64;101003.03;5090285;28;20027;-79
2021/07/14 09:48:20;;;;;;;35.05;31.65;;;;;;;25.85;72.58;101012.38;5076598;28;20521;-79
2021/07/14 09:50:51;;;;;;;33.83;30.63;;;;;;;25.94;72.84;101003.75;5082088;28;20036;-79
2021/07/14 09:53:19;;;;;;;34.15;30.85;;;;;;;25.95;72.92;101002.59;5065108;28;20052;-79
2021/07/14 09:55:46;;;;;;;33.70;30.60;;;;;;;25.97;72.22;101002.19;5081666;28;20028;-79
2021/07/14 09:58:30;;;;;;;35.80;32.42;;;;;;;25.95;72.19;100999.78;5074946;28;20047;-79
2021/07/14 10:01:03;;;;;;;36.45;33.03;;;;;;;25.96;71.95;100989.44;5076167;28;20442;-80
2021/07/14 10:03:33;;;;;;;34.42;31.10;;;;;;;26.00;71.73;100990.28;5083907;28;20016;-79
2021/07/14 10:06:01;;;;;;;35.45;32.03;;;;;;;26.06;71.29;100989.59;5094151;28;20476;-79
2021/07/14 10:08:27;;;;;;;32.20;29.05;;;;;;;26.18;71.31;100993.38;5077472;28;20028;-80
2021/07/14 10:11:06;;;;;;;32.17;29.17;;;;;;;26.30;71.21;100988.38;5094964;28;20027;-79
2021/07/14 10:13:31;;;;;;;31.73;28.60;;;;;;;26.59;70.52;100988.00;5071028;28;20110;-80
2021/07/14 10:16:00;;;;;;;30.42;27.40;;;;;;;26.85;70.38;100996.34;5059814;28;20063;-79
2021/07/14 10:18:26;;;;;;;30.48;27.70;;;;;;;27.12;69.80;100985.88;5074359;28;20135;-79
2021/07/14 10:20:51;;;;;;;30.63;27.90;;;;;;;27.32;68.64;100989.31;5088379;28;20036;-79
2021/07/14 10:23:17;;;;;;;30.95;28.00;;;;;;;27.46;68.12;100985.88;5063961;28;20016;-80
2021/07/14 10:25:43;;;;;;;32.17;29.17;;;;;;;27.53;67.62;100985.94;5084051;28;20404;-79
2021/07/14 10:28:12;;;;;;;30.15;27.40;;;;;;;27.68;66.87;100986.88;5063870;28;20028;-79
2021/07/14 10:30:41;;;;;;;30.13;27.48;;;;;;;27.87;66.49;100994.28;5076670;28;20123;-79
2021/07/14 10:33:10;;;;;;;32.13;29.33;;;;;;;27.77;65.53;100992.94;5075506;28;20097;-80
2021/07/14 10:35:40;;;;;;;29.00;26.23;;;;;;;27.64;65.81;100986.06;5080229;28;20030;-80
2021/07/14 10:38:06;;;;;;;31.15;28.08;;;;;;;27.60;65.76;100991.59;5092298;28;20075;-80
2021/07/14 10:40:31;;;;;;;29.92;27.13;;;;;;;27.57;65.71;100997.97;5086915;28;20068;-80
2021/07/14 10:42:57;;;;;;;30.00;27.30;;;;;;;27.56;65.71;100992.78;5074409;28;20140;-80
2021/07/14 10:45:22;;;;;;;32.42;29.52;;;;;;;27.52;65.69;100994.72;5078672;28;20478;-80
2021/07/14 10:47:49;;;;;;;31.55;28.55;;;;;;;27.45;65.99;100989.88;5075009;28;20029;-80
2021/07/14 10:50:18;;;;;;;36.13;32.63;;;;;;;27.56;65.73;100982.38;5076079;28;20044;-80
2021/07/14 10:52:44;;;;;;;35.90;32.50;;;;;;;27.64;65.66;100991.66;5079964;28;20556;-80
2021/07/14 10:55:11;;;;;;;35.33;32.03;;;;;;;27.52;65.94;100989.13;5077412;28;20106;-80
2021/07/14 10:57:37;;;;;;;34.35;31.15;;;;;;;27.34;66.52;101000.94;5076200;28;20039;-79
2021/07/14 11:00:06;;;;;;;30.20;27.50;;;;;;;27.25;66.33;101000.44;5064355;28;20020;-80
2021/07/14 11:02:51;;;;;;;30.98;27.88;;;;;;;27.32;65.90;100996.94;5083944;28;20058;-79
2021/07/14 11:05:45;;;;;;;31.63;28.52;;;;;;;27.37;65.10;101000.19;5074949;28;20161;-80
2021/07/14 11:08:10;;;;;;;31.02;28.20;;;;;;;27.34;64.80;100995.34;5069313;28;20426;-79
2021/07/14 11:10:37;;;;;;;31.75;28.77;;;;;;;27.33;64.79;100999.31;5081179;28;20042;-79
2021/07/14 11:13:26;;;;;;;33.50;30.30;;;;;;;27.37;65.33;101002.97;5070107;28;20025;-79
2021/07/14 11:15:52;;;;;;;33.25;29.80;;;;;;;27.39;65.03;101003.41;5087567;28;20115;-80
2021/07/14 11:18:29;;;;;;;33.30;29.90;;;;;;;27.33;64.98;100992.94;5080404;28;20032;-79
2021/07/14 11:20:55;;;;;;;29.83;27.15;;;;;;;27.40;65.23;100999.41;5094311;28;20028;-81